RYR3JZ LKPR-LATI
Flight info
| Callsign | RYR3JZ |
|---|---|
| Flight time | 1h 33m |
| Altitude | 33000 |
| Route | VOZ DCT PISAM DCT TAGAS/N0432F350 DCT INSAX DCT OBUTI DCT ZAG DCT AKIKA/N0330F180 T8 INLOT |
| Aircraft | B738/M-SDE3FGILRWY/SB1 |
Departure
| Time | 2026-05-04 07:35 |
|---|---|
| Airport | Václav Havel Airport Prague (LKPR) |
Arrival
| Time | 2026-05-04 09:09 |
|---|---|
| Airport | Tirana International Airport Mother Teresa (LATI) |
| Time | Latitude | Longitude | Altitude | Speed | Heading |
|---|---|---|---|---|---|
| 2026-05-04 07:10 | 50.11030 | 14.26774 | 1201 ft | 0 kts | 65° |
| 2026-05-04 07:22 | 50.11020 | 14.26740 | 1201 ft | 3 kts | 58° |
| 2026-05-04 07:22 | 50.11008 | 14.26720 | 1201 ft | 3 kts | 19° |
| 2026-05-04 07:23 | 50.10992 | 14.26720 | 1201 ft | 3 kts | 334° |
| 2026-05-04 07:23 | 50.10976 | 14.26734 | 1201 ft | 2 kts | 328° |
| 2026-05-04 07:23 | 50.10971 | 14.26739 | 1201 ft | 0 kts | 328° |
| 2026-05-04 07:26 | 50.11074 | 14.26496 | 1201 ft | 11 kts | 277° |
| 2026-05-04 07:27 | 50.11084 | 14.26384 | 1201 ft | 9 kts | 277° |
| 2026-05-04 07:27 | 50.11082 | 14.26265 | 1201 ft | 12 kts | 246° |
| 2026-05-04 07:27 | 50.11039 | 14.26127 | 1201 ft | 16 kts | 244° |
| 2026-05-04 07:27 | 50.10989 | 14.25956 | 1201 ft | 19 kts | 240° |
| 2026-05-04 07:28 | 50.10909 | 14.25853 | 1201 ft | 14 kts | 215° |
| 2026-05-04 07:28 | 50.10818 | 14.25754 | 1201 ft | 13 kts | 214° |
| 2026-05-04 07:28 | 50.10767 | 14.25699 | 1201 ft | 5 kts | 214° |
| 2026-05-04 07:28 | 50.10729 | 14.25658 | 1201 ft | 7 kts | 214° |
| 2026-05-04 07:29 | 50.10683 | 14.25609 | 1201 ft | 10 kts | 214° |
| 2026-05-04 07:29 | 50.10618 | 14.25531 | 1201 ft | 14 kts | 232° |
| 2026-05-04 07:29 | 50.10588 | 14.25374 | 1201 ft | 17 kts | 258° |
| 2026-05-04 07:29 | 50.10566 | 14.25215 | 1201 ft | 13 kts | 256° |
| 2026-05-04 07:30 | 50.10537 | 14.25086 | 1201 ft | 13 kts | 246° |
| 2026-05-04 07:30 | 50.10494 | 14.24944 | 1201 ft | 16 kts | 244° |
| 2026-05-04 07:30 | 50.10441 | 14.24774 | 1201 ft | 19 kts | 244° |
| 2026-05-04 07:30 | 50.10402 | 14.24643 | 1201 ft | 13 kts | 245° |
| 2026-05-04 07:31 | 50.10360 | 14.24497 | 1201 ft | 16 kts | 245° |
| 2026-05-04 07:31 | 50.10321 | 14.24364 | 1201 ft | 14 kts | 246° |
| 2026-05-04 07:33 | 50.10143 | 14.23240 | 1201 ft | 15 kts | 246° |
| 2026-05-04 07:33 | 50.10097 | 14.23075 | 1201 ft | 18 kts | 246° |
| 2026-05-04 07:33 | 50.10050 | 14.22916 | 1201 ft | 15 kts | 248° |
| 2026-05-04 07:33 | 50.10070 | 14.22755 | 1201 ft | 16 kts | 320° |
| 2026-05-04 07:34 | 50.10124 | 14.22716 | 1201 ft | 6 kts | 347° |
| 2026-05-04 07:34 | 50.10173 | 14.22719 | 1201 ft | 9 kts | 15° |
| 2026-05-04 07:34 | 50.10230 | 14.22777 | 1201 ft | 11 kts | 59° |
| 2026-05-04 07:34 | 50.10277 | 14.22928 | 1201 ft | 26 kts | 65° |
| 2026-05-04 07:35 | 50.10449 | 14.23505 | 1202 ft | 92 kts | 64° |
| 2026-05-04 07:35 | 50.10807 | 14.24700 | 1203 ft | 150 kts | 65° |
| 2026-05-04 07:35 | 50.11268 | 14.26363 | 1556 ft | 175 kts | 67° |
| 2026-05-04 07:35 | 50.11730 | 14.28179 | 2234 ft | 188 kts | 67° |
| 2026-05-04 07:36 | 50.12266 | 14.30118 | 2885 ft | 202 kts | 63° |
| 2026-05-04 07:36 | 50.12921 | 14.32131 | 3510 ft | 213 kts | 62° |
| 2026-05-04 07:38 | 50.16236 | 14.49311 | 7787 ft | 285 kts | 119° |
| 2026-05-04 07:38 | 50.14990 | 14.51690 | 8642 ft | 285 kts | 142° |
| 2026-05-04 07:38 | 50.13289 | 14.53227 | 9502 ft | 286 kts | 160° |
| 2026-05-04 07:38 | 50.11398 | 14.54275 | 10430 ft | 287 kts | 161° |
| 2026-05-04 07:39 | 50.09503 | 14.55378 | 11153 ft | 297 kts | 161° |
| 2026-05-04 07:39 | 50.07504 | 14.56537 | 11571 ft | 316 kts | 161° |
| 2026-05-04 07:39 | 50.05390 | 14.57756 | 12058 ft | 331 kts | 161° |
| 2026-05-04 07:39 | 50.03208 | 14.59014 | 12807 ft | 336 kts | 162° |
| 2026-05-04 07:40 | 50.01002 | 14.60282 | 13616 ft | 340 kts | 162° |
| 2026-05-04 07:40 | 49.98772 | 14.61561 | 14408 ft | 343 kts | 162° |
| 2026-05-04 07:40 | 49.96529 | 14.62845 | 15194 ft | 346 kts | 162° |
| 2026-05-04 07:40 | 49.94251 | 14.64148 | 15751 ft | 350 kts | 162° |
| 2026-05-04 07:41 | 49.91959 | 14.65458 | 16051 ft | 351 kts | 162° |
| 2026-05-04 07:41 | 49.89670 | 14.66764 | 16057 ft | 351 kts | 162° |
| 2026-05-04 07:41 | 49.87412 | 14.68051 | 16045 ft | 350 kts | 162° |
| 2026-05-04 07:41 | 49.85103 | 14.69367 | 16036 ft | 349 kts | 162° |
| 2026-05-04 07:42 | 49.82851 | 14.70660 | 16030 ft | 350 kts | 162° |
| 2026-05-04 07:42 | 49.80573 | 14.71991 | 16026 ft | 350 kts | 162° |
| 2026-05-04 07:42 | 49.78296 | 14.73305 | 16025 ft | 350 kts | 162° |
| 2026-05-04 07:42 | 49.75999 | 14.74619 | 16289 ft | 355 kts | 162° |
| 2026-05-04 07:43 | 49.73686 | 14.75936 | 17152 ft | 354 kts | 163° |
| 2026-05-04 07:43 | 49.71375 | 14.77246 | 17918 ft | 355 kts | 163° |
| 2026-05-04 07:43 | 49.69036 | 14.78569 | 18557 ft | 360 kts | 163° |
| 2026-05-04 07:43 | 49.66662 | 14.79910 | 19129 ft | 366 kts | 163° |
| 2026-05-04 07:44 | 49.64259 | 14.81266 | 19714 ft | 371 kts | 163° |
| 2026-05-04 07:44 | 49.61816 | 14.82644 | 20288 ft | 376 kts | 163° |
| 2026-05-04 07:44 | 49.59344 | 14.84037 | 20843 ft | 381 kts | 163° |
| 2026-05-04 07:44 | 49.56839 | 14.85448 | 21390 ft | 386 kts | 163° |
| 2026-05-04 07:45 | 49.54300 | 14.86881 | 21911 ft | 391 kts | 162° |
| 2026-05-04 07:45 | 49.51783 | 14.88536 | 22430 ft | 397 kts | 157° |
| 2026-05-04 07:45 | 49.49304 | 14.90474 | 22939 ft | 402 kts | 155° |
| 2026-05-04 07:45 | 49.46826 | 14.92535 | 23433 ft | 407 kts | 154° |
| 2026-05-04 07:46 | 49.44327 | 14.94600 | 23914 ft | 411 kts | 154° |
| 2026-05-04 07:46 | 49.41788 | 14.96678 | 24397 ft | 414 kts | 155° |
| 2026-05-04 07:46 | 49.39237 | 14.98751 | 24891 ft | 417 kts | 155° |
| 2026-05-04 07:46 | 49.36658 | 15.00836 | 25374 ft | 420 kts | 155° |
| 2026-05-04 07:47 | 49.34064 | 15.02927 | 25837 ft | 423 kts | 154° |
| 2026-05-04 07:47 | 49.31451 | 15.05029 | 26288 ft | 426 kts | 154° |
| 2026-05-04 07:47 | 49.28815 | 15.07146 | 26719 ft | 429 kts | 154° |
| 2026-05-04 07:49 | 49.10098 | 15.22230 | 29949 ft | 434 kts | 154° |
| 2026-05-04 07:49 | 49.07460 | 15.24330 | 30412 ft | 433 kts | 154° |
| 2026-05-04 07:49 | 49.04791 | 15.26447 | 30896 ft | 432 kts | 154° |
| 2026-05-04 07:50 | 49.02102 | 15.28579 | 31383 ft | 430 kts | 154° |
| 2026-05-04 07:50 | 48.99477 | 15.30656 | 31798 ft | 430 kts | 154° |
| 2026-05-04 07:50 | 48.96825 | 15.32753 | 32241 ft | 429 kts | 154° |
| 2026-05-04 07:50 | 48.94179 | 15.34844 | 32681 ft | 428 kts | 154° |
| 2026-05-04 07:51 | 48.91515 | 15.36868 | 32982 ft | 430 kts | 157° |
| 2026-05-04 07:51 | 48.88734 | 15.38552 | 33035 ft | 431 kts | 163° |
| 2026-05-04 07:51 | 48.82930 | 15.40775 | 33048 ft | 428 kts | 170° |
| 2026-05-04 07:52 | 48.77127 | 15.42586 | 33050 ft | 426 kts | 170° |
| 2026-05-04 07:52 | 48.71323 | 15.44413 | 33050 ft | 426 kts | 170° |
| 2026-05-04 07:54 | 48.48012 | 15.51784 | 33051 ft | 429 kts | 170° |
| 2026-05-04 07:55 | 48.42164 | 15.53626 | 33051 ft | 430 kts | 170° |
| 2026-05-04 07:55 | 48.36304 | 15.55466 | 33051 ft | 430 kts | 169° |
| 2026-05-04 07:56 | 48.30440 | 15.57317 | 33059 ft | 431 kts | 170° |
| 2026-05-04 07:56 | 48.24568 | 15.59149 | 33060 ft | 431 kts | 170° |
| 2026-05-04 07:57 | 48.18731 | 15.60962 | 33061 ft | 431 kts | 170° |
| 2026-05-04 07:57 | 48.12844 | 15.62786 | 33063 ft | 431 kts | 170° |
| 2026-05-04 07:58 | 48.06963 | 15.64604 | 33077 ft | 432 kts | 170° |
| 2026-05-04 07:58 | 48.01097 | 15.66615 | 33084 ft | 433 kts | 166° |
| 2026-05-04 07:59 | 47.95304 | 15.69126 | 33086 ft | 433 kts | 165° |
| 2026-05-04 07:59 | 47.89514 | 15.71626 | 33087 ft | 433 kts | 165° |
| 2026-05-04 08:00 | 47.83718 | 15.74082 | 33088 ft | 433 kts | 165° |
| 2026-05-04 08:02 | 47.60519 | 15.83822 | 33097 ft | 433 kts | 165° |
| 2026-05-04 08:02 | 47.54714 | 15.86242 | 33098 ft | 434 kts | 166° |
| 2026-05-04 08:03 | 47.48904 | 15.88656 | 33101 ft | 434 kts | 166° |
| 2026-05-04 08:03 | 47.43088 | 15.91065 | 33102 ft | 434 kts | 166° |
| 2026-05-04 08:04 | 47.37277 | 15.93467 | 33105 ft | 434 kts | 166° |
| 2026-05-04 08:04 | 47.31462 | 15.95874 | 33107 ft | 434 kts | 165° |
| 2026-05-04 08:05 | 47.26623 | 15.97878 | 33107 ft | 435 kts | 166° |
| 2026-05-04 08:05 | 47.20796 | 16.00269 | 33109 ft | 435 kts | 166° |
| 2026-05-04 08:06 | 47.14944 | 16.02660 | 33113 ft | 438 kts | 165° |
| 2026-05-04 08:06 | 47.09072 | 16.05055 | 33111 ft | 438 kts | 165° |
| 2026-05-04 08:08 | 46.85294 | 16.13069 | 33105 ft | 440 kts | 169° |
| 2026-05-04 08:11 | 46.58310 | 16.21253 | 33103 ft | 441 kts | 169° |
| 2026-05-04 08:11 | 46.49304 | 16.23956 | 33102 ft | 440 kts | 169° |
| 2026-05-04 08:12 | 46.43305 | 16.25752 | 33107 ft | 440 kts | 169° |
| 2026-05-04 08:12 | 46.37275 | 16.27352 | 33110 ft | 441 kts | 175° |
| 2026-05-04 08:13 | 46.31160 | 16.27882 | 33113 ft | 440 kts | 179° |
| 2026-05-04 08:13 | 46.25038 | 16.28281 | 33116 ft | 440 kts | 179° |
| 2026-05-04 08:14 | 46.18921 | 16.28699 | 33119 ft | 440 kts | 179° |
| 2026-05-04 08:16 | 45.94443 | 16.30373 | 33133 ft | 441 kts | 178° |
| 2026-05-04 08:16 | 45.91411 | 16.31029 | 33128 ft | 442 kts | 167° |
| 2026-05-04 08:16 | 45.88550 | 16.32471 | 33134 ft | 442 kts | 155° |
| 2026-05-04 08:17 | 45.83274 | 16.37078 | 33143 ft | 442 kts | 144° |
| 2026-05-04 08:17 | 45.78373 | 16.42296 | 33143 ft | 441 kts | 143° |
| 2026-05-04 08:19 | 45.58517 | 16.63126 | 33147 ft | 443 kts | 143° |
| 2026-05-04 08:20 | 45.53534 | 16.68344 | 33149 ft | 444 kts | 143° |
| 2026-05-04 08:20 | 45.48550 | 16.73527 | 33152 ft | 444 kts | 143° |
| 2026-05-04 08:21 | 45.43548 | 16.78706 | 33154 ft | 444 kts | 143° |
| 2026-05-04 08:21 | 45.38544 | 16.83870 | 33157 ft | 445 kts | 143° |
| 2026-05-04 08:22 | 45.33529 | 16.89032 | 33160 ft | 445 kts | 143° |
| 2026-05-04 08:24 | 45.13436 | 17.09592 | 33169 ft | 445 kts | 143° |
| 2026-05-04 08:24 | 45.08438 | 17.14678 | 33170 ft | 445 kts | 143° |
| 2026-05-04 08:25 | 45.03404 | 17.19789 | 33171 ft | 446 kts | 143° |
| 2026-05-04 08:25 | 44.98361 | 17.24897 | 33171 ft | 446 kts | 143° |
| 2026-05-04 08:27 | 44.78144 | 17.45265 | 33172 ft | 447 kts | 143° |
| 2026-05-04 08:28 | 44.73075 | 17.50345 | 33173 ft | 448 kts | 143° |
| 2026-05-04 08:28 | 44.67991 | 17.55427 | 33174 ft | 448 kts | 143° |
| 2026-05-04 08:29 | 44.62909 | 17.60496 | 33175 ft | 449 kts | 143° |
| 2026-05-04 08:31 | 44.42505 | 17.80740 | 33181 ft | 450 kts | 143° |
| 2026-05-04 08:33 | 44.22012 | 18.00894 | 33187 ft | 451 kts | 143° |
| 2026-05-04 08:35 | 44.01458 | 18.20933 | 33196 ft | 451 kts | 143° |
| 2026-05-04 08:35 | 43.96313 | 18.25923 | 33198 ft | 451 kts | 143° |
| 2026-05-04 08:37 | 43.78310 | 18.43296 | 33200 ft | 451 kts | 143° |
| 2026-05-04 08:38 | 43.73151 | 18.48251 | 33200 ft | 452 kts | 143° |
| 2026-05-04 08:38 | 43.67977 | 18.53210 | 33201 ft | 452 kts | 143° |
| 2026-05-04 08:40 | 43.47269 | 18.72949 | 33197 ft | 453 kts | 143° |
| 2026-05-04 08:41 | 43.42078 | 18.77872 | 33202 ft | 453 kts | 143° |
| 2026-05-04 08:41 | 43.36883 | 18.82787 | 33201 ft | 453 kts | 143° |
| 2026-05-04 08:42 | 43.31682 | 18.87698 | 33161 ft | 454 kts | 143° |
| 2026-05-04 08:42 | 43.29082 | 18.90149 | 32838 ft | 451 kts | 143° |
| 2026-05-04 08:42 | 43.26508 | 18.92573 | 32465 ft | 446 kts | 143° |
| 2026-05-04 08:42 | 43.23955 | 18.94975 | 32042 ft | 444 kts | 143° |
| 2026-05-04 08:43 | 43.21420 | 18.97357 | 31623 ft | 441 kts | 143° |
| 2026-05-04 08:43 | 43.18890 | 18.99733 | 31205 ft | 439 kts | 143° |
| 2026-05-04 08:43 | 43.16380 | 19.02087 | 30792 ft | 436 kts | 143° |
| 2026-05-04 08:43 | 43.13884 | 19.04426 | 30384 ft | 434 kts | 143° |
| 2026-05-04 08:44 | 43.11394 | 19.06756 | 29983 ft | 432 kts | 143° |
| 2026-05-04 08:44 | 43.08924 | 19.09066 | 29581 ft | 429 kts | 143° |
| 2026-05-04 08:46 | 42.92163 | 19.24679 | 26732 ft | 387 kts | 142° |
| 2026-05-04 08:46 | 42.89939 | 19.26743 | 26354 ft | 388 kts | 142° |
| 2026-05-04 08:46 | 42.87694 | 19.28824 | 25971 ft | 392 kts | 142° |
| 2026-05-04 08:46 | 42.85445 | 19.30907 | 25582 ft | 388 kts | 142° |
| 2026-05-04 08:47 | 42.83977 | 19.32266 | 25326 ft | 380 kts | 142° |
| 2026-05-04 08:47 | 42.81044 | 19.34979 | 24818 ft | 383 kts | 142° |
| 2026-05-04 08:47 | 42.78845 | 19.37029 | 24433 ft | 382 kts | 141° |
| 2026-05-04 08:47 | 42.76686 | 19.39038 | 24052 ft | 370 kts | 141° |
| 2026-05-04 08:48 | 42.75279 | 19.40341 | 23796 ft | 370 kts | 142° |
| 2026-05-04 08:48 | 42.73144 | 19.42300 | 23037 ft | 371 kts | 143° |
| 2026-05-04 08:48 | 42.70779 | 19.43875 | 22229 ft | 377 kts | 158° |
| 2026-05-04 08:48 | 42.68271 | 19.44678 | 21540 ft | 375 kts | 171° |
| 2026-05-04 08:49 | 42.65695 | 19.44813 | 21063 ft | 366 kts | 178° |
| 2026-05-04 08:50 | 42.50515 | 19.44918 | 18924 ft | 363 kts | 178° |
| 2026-05-04 08:50 | 42.48002 | 19.44936 | 18571 ft | 357 kts | 178° |
| 2026-05-04 08:51 | 42.45551 | 19.44954 | 18230 ft | 350 kts | 178° |
| 2026-05-04 08:51 | 42.43105 | 19.44971 | 17889 ft | 353 kts | 178° |
| 2026-05-04 08:51 | 42.40641 | 19.44989 | 17544 ft | 355 kts | 178° |
| 2026-05-04 08:51 | 42.38190 | 19.45007 | 17199 ft | 347 kts | 178° |
| 2026-05-04 08:52 | 42.35797 | 19.45024 | 16863 ft | 343 kts | 178° |
| 2026-05-04 08:52 | 42.33401 | 19.45042 | 16527 ft | 345 kts | 178° |
| 2026-05-04 08:52 | 42.30989 | 19.45059 | 16187 ft | 347 kts | 178° |
| 2026-05-04 08:52 | 42.28609 | 19.45077 | 15847 ft | 337 kts | 178° |
| 2026-05-04 08:53 | 42.26269 | 19.45093 | 15514 ft | 337 kts | 179° |
| 2026-05-04 08:54 | 42.10054 | 19.45209 | 13184 ft | 323 kts | 179° |
| 2026-05-04 08:55 | 42.07798 | 19.45226 | 12862 ft | 325 kts | 179° |
| 2026-05-04 08:55 | 42.05524 | 19.45242 | 12534 ft | 327 kts | 178° |
| 2026-05-04 08:55 | 42.03298 | 19.45258 | 12387 ft | 310 kts | 178° |
| 2026-05-04 08:55 | 42.01177 | 19.45272 | 12309 ft | 302 kts | 179° |
| 2026-05-04 08:57 | 41.88001 | 19.47663 | 10890 ft | 241 kts | 168° |
| 2026-05-04 09:01 | 41.65980 | 19.52909 | 3756 ft | 211 kts | 167° |
| 2026-05-04 09:01 | 41.64737 | 19.53742 | 3452 ft | 193 kts | 134° |
| 2026-05-04 09:01 | 41.64156 | 19.55227 | 3238 ft | 174 kts | 105° |
| 2026-05-04 09:01 | 41.63995 | 19.56790 | 3032 ft | 168 kts | 94° |
| 2026-05-04 09:02 | 41.64024 | 19.58348 | 3003 ft | 168 kts | 88° |
| 2026-05-04 09:02 | 41.64136 | 19.59907 | 3002 ft | 170 kts | 85° |
| 2026-05-04 09:02 | 41.64273 | 19.61487 | 3004 ft | 172 kts | 84° |
| 2026-05-04 09:02 | 41.64402 | 19.63073 | 3004 ft | 172 kts | 85° |
| 2026-05-04 09:03 | 41.64525 | 19.64662 | 3000 ft | 172 kts | 85° |
| 2026-05-04 09:03 | 41.64647 | 19.66249 | 3000 ft | 172 kts | 85° |
| 2026-05-04 09:03 | 41.64414 | 19.67781 | 2944 ft | 175 kts | 125° |
| 2026-05-04 09:03 | 41.63378 | 19.68605 | 2978 ft | 177 kts | 161° |
| 2026-05-04 09:04 | 41.62177 | 19.68989 | 3036 ft | 179 kts | 166° |
| 2026-05-04 09:04 | 41.60957 | 19.69308 | 3040 ft | 178 kts | 169° |
| 2026-05-04 09:04 | 41.59734 | 19.69554 | 3035 ft | 178 kts | 172° |
| 2026-05-04 09:04 | 41.58515 | 19.69753 | 3013 ft | 174 kts | 173° |
| 2026-05-04 09:05 | 41.57320 | 19.69929 | 2928 ft | 172 kts | 174° |
| 2026-05-04 09:05 | 41.56140 | 19.70094 | 2720 ft | 170 kts | 174° |
| 2026-05-04 09:05 | 41.54969 | 19.70254 | 2495 ft | 168 kts | 174° |
| 2026-05-04 09:05 | 41.53812 | 19.70410 | 2283 ft | 165 kts | 174° |
| 2026-05-04 09:06 | 41.52675 | 19.70562 | 2064 ft | 164 kts | 174° |
| 2026-05-04 09:07 | 41.45254 | 19.71552 | 630 ft | 150 kts | 176° |
| 2026-05-04 09:08 | 41.44219 | 19.71688 | 435 ft | 149 kts | 176° |
| 2026-05-04 09:08 | 41.43187 | 19.71816 | 240 ft | 149 kts | 176° |
| 2026-05-04 09:08 | 41.42157 | 19.71963 | 133 ft | 146 kts | 176° |
| 2026-05-04 09:08 | 41.41256 | 19.72081 | 117 ft | 111 kts | 169° |
| 2026-05-04 09:09 | 41.40686 | 19.72164 | 116 ft | 52 kts | 173° |
| 2026-05-04 09:09 | 41.40380 | 19.72201 | 116 ft | 32 kts | 175° |
| 2026-05-04 09:09 | 41.40274 | 19.72200 | 116 ft | 13 kts | 144° |
| 2026-05-04 09:09 | 41.40285 | 19.72246 | 116 ft | 4 kts | 330° |
| 2026-05-04 09:10 | 41.40317 | 19.72222 | 116 ft | 7 kts | 333° |
| 2026-05-04 09:10 | 41.40380 | 19.72202 | 116 ft | 11 kts | 355° |
| 2026-05-04 09:10 | 41.40468 | 19.72192 | 116 ft | 11 kts | 355° |
| 2026-05-04 09:10 | 41.40558 | 19.72178 | 116 ft | 15 kts | 353° |
| 2026-05-04 09:11 | 41.40642 | 19.72164 | 116 ft | 12 kts | 353° |
| 2026-05-04 09:11 | 41.40673 | 19.72073 | 116 ft | 14 kts | 256° |
| 2026-05-04 09:11 | 41.40648 | 19.71928 | 116 ft | 18 kts | 257° |
| 2026-05-04 09:11 | 41.40665 | 19.71767 | 116 ft | 19 kts | 330° |
| 2026-05-04 09:12 | 41.40800 | 19.71732 | 116 ft | 21 kts | 348° |
| 2026-05-04 09:12 | 41.40948 | 19.71718 | 116 ft | 22 kts | 352° |
| 2026-05-04 09:14 | 41.41847 | 19.71592 | 116 ft | 11 kts | 354° |
| 2026-05-04 09:14 | 41.41925 | 19.71581 | 116 ft | 11 kts | 354° |
| 2026-05-04 09:14 | 41.41956 | 19.71577 | 116 ft | 3 kts | 355° |
| 2026-05-04 09:14 | 41.41988 | 19.71561 | 116 ft | 5 kts | 301° |
| 2026-05-04 09:15 | 41.41991 | 19.71542 | 116 ft | 4 kts | 278° |
| 2026-05-04 09:15 | 41.41990 | 19.71513 | 116 ft | 1 kts | 265° |
| 2026-05-04 09:15 | 41.41990 | 19.71512 | 116 ft | 0 kts | 265° |